createdAt,value
2023-05-04T00:02:06.058Z,7.61
2023-05-04T00:04:32.536Z,7.58
2023-05-04T00:06:59.150Z,7.60
2023-05-04T00:09:25.856Z,7.60
2023-05-04T00:11:52.323Z,7.60
2023-05-04T00:14:18.753Z,7.61
2023-05-04T00:16:45.343Z,7.59
2023-05-04T00:19:13.866Z,7.59
2023-05-04T00:21:40.320Z,7.57
2023-05-04T00:24:06.823Z,7.59
2023-05-04T00:26:33.314Z,7.60
2023-05-04T00:28:59.757Z,7.60
2023-05-04T00:31:26.279Z,7.60
2023-05-04T00:33:53.241Z,7.59
2023-05-04T00:36:19.730Z,7.57
2023-05-04T00:38:51.412Z,7.57
2023-05-04T00:41:18.745Z,7.58
2023-05-04T00:43:45.675Z,7.57
2023-05-04T00:46:13.122Z,7.56
2023-05-04T00:48:41.040Z,7.54
2023-05-04T00:51:10.961Z,7.54
2023-05-04T00:53:38.962Z,7.50
2023-05-04T00:56:07.119Z,7.53
2023-05-04T00:58:34.213Z,7.54
2023-05-04T01:01:01.333Z,7.51
2023-05-04T01:03:28.464Z,7.52
2023-05-04T01:06:16.626Z,7.47
2023-05-04T01:08:50.506Z,7.47
2023-05-04T01:11:33.794Z,7.44
2023-05-04T01:14:02.047Z,7.49
2023-05-04T01:16:29.466Z,7.48
2023-05-04T01:18:55.972Z,7.46
2023-05-04T01:21:22.475Z,7.43
2023-05-04T01:23:49.020Z,7.40
2023-05-04T01:26:24.799Z,7.36
2023-05-04T01:28:51.232Z,7.35
2023-05-04T01:31:22.675Z,7.31
2023-05-04T01:33:52.832Z,7.24
2023-05-04T01:36:23.011Z,7.28
2023-05-04T01:38:53.235Z,7.25
2023-05-04T01:41:19.674Z,7.25
2023-05-04T01:43:46.140Z,7.22
2023-05-04T01:46:12.800Z,7.23
2023-05-04T01:48:39.290Z,7.22
2023-05-04T01:51:05.893Z,7.20
2023-05-04T01:53:32.374Z,7.18
2023-05-04T01:55:58.875Z,7.16
2023-05-04T01:58:25.319Z,7.14
2023-05-04T02:00:52.789Z,7.13
2023-05-04T02:03:19.462Z,7.13
2023-05-04T02:05:46.122Z,7.11
2023-05-04T02:08:12.600Z,7.10
2023-05-04T02:10:39.128Z,7.09
2023-05-04T02:13:05.661Z,7.07
2023-05-04T02:15:32.206Z,7.06
2023-05-04T02:17:58.728Z,7.04
2023-05-04T02:20:25.347Z,7.03
2023-05-04T02:22:51.815Z,7.01
2023-05-04T02:25:18.510Z,6.98
2023-05-04T02:27:44.972Z,6.99
2023-05-04T02:30:12.392Z,6.98
2023-05-04T02:32:38.900Z,6.98
2023-05-04T02:35:05.861Z,6.94
2023-05-04T02:37:32.365Z,6.95
2023-05-04T02:39:58.857Z,6.91
2023-05-04T02:42:25.361Z,6.91
2023-05-04T02:44:51.850Z,6.91
2023-05-04T02:47:18.482Z,6.89
2023-05-04T02:49:44.950Z,6.87
2023-05-04T02:52:11.398Z,6.86
2023-05-04T02:54:37.876Z,6.84
2023-05-04T02:57:04.912Z,6.81
2023-05-04T02:59:31.377Z,6.79
2023-05-04T03:01:57.852Z,6.78
2023-05-04T03:04:24.424Z,6.76
2023-05-04T03:06:51.113Z,6.75
2023-05-04T03:09:17.633Z,6.75
2023-05-04T03:11:44.513Z,6.74
2023-05-04T03:14:11.135Z,6.73
2023-05-04T03:16:37.661Z,6.71
2023-05-04T03:19:04.179Z,6.70
2023-05-04T03:21:30.697Z,6.72
2023-05-04T03:23:58.763Z,6.71
2023-05-04T03:26:25.421Z,6.70
2023-05-04T03:28:52.832Z,6.70
2023-05-04T03:31:19.339Z,6.68
2023-05-04T03:33:49.304Z,6.67
2023-05-04T03:36:16.138Z,6.68
2023-05-04T03:38:43.313Z,6.70
2023-05-04T03:41:10.550Z,6.69
2023-05-04T03:43:37.045Z,6.70
2023-05-04T03:46:03.592Z,6.70
2023-05-04T03:48:30.253Z,6.69
2023-05-04T03:50:57.261Z,6.70
2023-05-04T03:53:23.743Z,6.69
2023-05-04T03:55:50.473Z,6.70
2023-05-04T03:58:17.088Z,6.68
2023-05-04T04:00:43.662Z,6.68
2023-05-04T04:03:14.694Z,6.66
2023-05-04T04:05:41.333Z,6.64
2023-05-04T04:08:07.928Z,6.64
2023-05-04T04:10:35.042Z,6.64
2023-05-04T04:13:01.542Z,6.61
2023-05-04T04:15:28.391Z,6.62
2023-05-04T04:17:54.931Z,6.60
2023-05-04T04:20:21.449Z,6.62
2023-05-04T04:22:47.947Z,6.62
2023-05-04T04:25:14.399Z,6.59
2023-05-04T04:27:40.854Z,6.59
2023-05-04T04:30:08.055Z,6.58
2023-05-04T04:32:34.588Z,6.58
2023-05-04T04:35:01.175Z,6.60
2023-05-04T04:37:27.642Z,6.62
2023-05-04T04:39:54.151Z,6.63
2023-05-04T04:42:20.627Z,6.66
2023-05-04T04:44:47.108Z,6.69
2023-05-04T04:47:13.549Z,6.72
2023-05-04T04:49:40.018Z,6.76
2023-05-04T04:52:06.474Z,6.79
2023-05-04T04:54:32.957Z,6.85
2023-05-04T04:56:59.505Z,6.92
2023-05-04T04:59:26.086Z,6.99
2023-05-04T05:01:52.523Z,7.06
2023-05-04T05:04:19.173Z,7.13
2023-05-04T05:06:45.731Z,7.22
2023-05-04T05:09:12.208Z,7.30
2023-05-04T05:11:38.666Z,7.38
2023-05-04T05:14:05.206Z,7.48
2023-05-04T05:16:31.732Z,7.56
2023-05-04T05:18:58.324Z,7.64
2023-05-04T05:21:24.867Z,7.72
2023-05-04T05:23:51.367Z,7.74
2023-05-04T05:26:17.814Z,7.88
2023-05-04T05:28:44.336Z,7.98
2023-05-04T05:31:10.858Z,8.11
2023-05-04T05:33:40.962Z,8.19
2023-05-04T05:36:07.762Z,8.30
2023-05-04T05:38:34.206Z,8.37
2023-05-04T05:41:00.730Z,8.47
2023-05-04T05:43:27.168Z,8.56
2023-05-04T05:45:53.889Z,8.62
2023-05-04T05:48:20.345Z,8.68
2023-05-04T05:50:46.886Z,8.76
2023-05-04T05:53:13.350Z,8.81
2023-05-04T05:55:39.815Z,8.87
2023-05-04T05:58:06.288Z,8.91
2023-05-04T06:00:32.810Z,8.95
2023-05-04T06:02:59.391Z,8.99
2023-05-04T06:05:26.013Z,9.04
2023-05-04T06:07:52.447Z,9.10
2023-05-04T06:10:18.971Z,9.15
2023-05-04T06:12:45.512Z,9.19
2023-05-04T06:15:12.021Z,9.26
2023-05-04T06:17:38.559Z,9.30
2023-05-04T06:20:08.981Z,9.39
2023-05-04T06:22:35.554Z,9.47
2023-05-04T06:25:05.277Z,9.53
2023-05-04T06:27:34.395Z,9.58
2023-05-04T06:30:00.861Z,9.68
2023-05-04T06:32:27.705Z,9.73
2023-05-04T06:34:55.004Z,9.82
2023-05-04T06:37:21.864Z,9.86
2023-05-04T06:39:48.385Z,9.91
2023-05-04T06:42:16.016Z,9.95
2023-05-04T06:44:42.527Z,10.01
2023-05-04T06:47:08.988Z,10.07
2023-05-04T06:49:35.836Z,10.13
2023-05-04T06:52:02.334Z,10.17
2023-05-04T06:54:28.767Z,10.24
2023-05-04T06:56:55.226Z,10.29
2023-05-04T06:59:21.679Z,10.38
2023-05-04T07:01:48.965Z,10.44
2023-05-04T07:04:15.959Z,10.51
2023-05-04T07:06:45.234Z,10.58
2023-05-04T07:09:11.674Z,10.64
2023-05-04T07:11:38.187Z,10.68
2023-05-04T07:14:23.133Z,10.72
2023-05-04T07:17:09.978Z,10.79
2023-05-04T07:19:56.771Z,10.88
2023-05-04T07:22:43.638Z,11.01
2023-05-04T07:25:30.481Z,11.11
2023-05-04T07:28:17.254Z,11.23
2023-05-04T07:31:04.484Z,11.35
2023-05-04T07:33:51.329Z,11.42
2023-05-04T07:36:38.118Z,11.53
2023-05-04T07:39:24.874Z,11.66
2023-05-04T07:42:11.900Z,11.81
2023-05-04T07:44:58.770Z,11.90
2023-05-04T07:47:45.628Z,12.04
2023-05-04T07:50:33.640Z,12.19
2023-05-04T07:53:20.486Z,12.32
2023-05-04T07:56:09.037Z,12.50
2023-05-04T07:58:55.948Z,12.69
2023-05-04T08:01:44.140Z,12.84
2023-05-04T08:04:31.034Z,13.01
2023-05-04T08:07:17.896Z,13.10
2023-05-04T08:10:05.355Z,13.24
2023-05-04T08:12:52.347Z,13.35
2023-05-04T08:15:39.180Z,13.43
2023-05-04T08:18:26.011Z,13.50
2023-05-04T08:21:12.832Z,13.49
2023-05-04T08:23:59.687Z,13.50
2023-05-04T08:26:52.640Z,13.50
2023-05-04T08:29:50.852Z,13.52
2023-05-04T08:32:37.653Z,13.54
2023-05-04T08:35:24.507Z,13.59
2023-05-04T08:38:11.350Z,13.69
2023-05-04T08:41:00.926Z,13.82
2023-05-04T08:43:47.752Z,14.03
2023-05-04T08:46:34.922Z,14.25
2023-05-04T08:49:24.174Z,14.47
2023-05-04T08:52:11.666Z,14.84
2023-05-04T08:54:59.107Z,15.07
2023-05-04T08:57:46.323Z,15.21
2023-05-04T09:00:33.893Z,15.23
2023-05-04T09:03:21.365Z,15.24
2023-05-04T09:06:09.345Z,15.32
2023-05-04T09:08:56.170Z,15.35
2023-05-04T09:11:43.488Z,15.35
2023-05-04T09:14:34.836Z,15.30
2023-05-04T09:17:21.679Z,15.37
2023-05-04T09:20:09.045Z,15.49
2023-05-04T09:23:06.139Z,15.65
2023-05-04T09:25:54.758Z,15.83
2023-05-04T09:28:41.605Z,16.11
2023-05-04T09:31:28.518Z,16.39
2023-05-04T09:34:16.181Z,16.65
2023-05-04T09:37:03.864Z,16.79
2023-05-04T09:39:59.646Z,16.92
2023-05-04T09:42:56.635Z,17.08
2023-05-04T09:45:45.068Z,17.37
2023-05-04T09:48:32.133Z,17.69
2023-05-04T09:51:20.129Z,18.11
2023-05-04T09:54:06.978Z,18.39
2023-05-04T09:56:59.891Z,18.40
2023-05-04T09:59:46.716Z,18.49
2023-05-04T10:02:33.906Z,18.58
2023-05-04T10:05:20.928Z,18.61
2023-05-04T10:08:08.747Z,18.61
2023-05-04T10:10:57.297Z,18.63
2023-05-04T10:13:45.872Z,18.67
2023-05-04T10:16:35.867Z,18.69
2023-05-04T10:19:29.558Z,18.82
2023-05-04T10:22:38.349Z,18.98
2023-05-04T10:26:03.122Z,19.37
2023-05-04T10:28:56.650Z,19.69
2023-05-04T10:31:44.097Z,19.86
2023-05-04T10:34:35.146Z,20.08
2023-05-04T10:37:22.012Z,20.43
2023-05-04T10:40:09.112Z,20.72
2023-05-04T10:42:55.931Z,21.01
2023-05-04T10:45:42.910Z,21.28
2023-05-04T10:48:34.112Z,21.41
2023-05-04T10:51:24.314Z,21.28
2023-05-04T10:54:17.874Z,21.21
2023-05-04T10:57:09.619Z,21.17
2023-05-04T10:59:59.380Z,21.04
2023-05-04T11:02:46.548Z,21.00
2023-05-04T11:05:47.254Z,20.98
2023-05-04T11:08:34.045Z,21.15
2023-05-04T11:11:21.093Z,21.27
2023-05-04T11:14:08.113Z,21.27
2023-05-04T11:17:27.705Z,21.29
2023-05-04T11:20:26.557Z,21.24
2023-05-04T11:23:16.549Z,21.23
2023-05-04T11:26:07.478Z,21.12
2023-05-04T11:28:55.455Z,21.02
2023-05-04T11:31:42.343Z,21.00
2023-05-04T11:34:29.123Z,20.92
2023-05-04T11:37:15.984Z,21.05
2023-05-04T11:40:07.921Z,21.25
2023-05-04T11:42:57.460Z,21.46
2023-05-04T11:45:47.145Z,21.72
2023-05-04T11:48:35.526Z,21.98
2023-05-04T11:51:23.312Z,22.34
2023-05-04T11:54:19.529Z,22.59
2023-05-04T11:57:06.338Z,22.69
2023-05-04T11:59:53.129Z,22.73
2023-05-04T12:02:40.097Z,22.62
2023-05-04T12:05:27.198Z,22.53
2023-05-04T12:08:23.223Z,22.49
2023-05-04T12:11:14.286Z,22.40
2023-05-04T12:14:11.502Z,22.30
2023-05-04T12:16:58.317Z,22.24
2023-05-04T12:19:49.421Z,22.26
2023-05-04T12:22:36.252Z,22.18
2023-05-04T12:25:23.804Z,22.06
2023-05-04T12:28:10.590Z,22.07
2023-05-04T12:30:57.421Z,22.02
2023-05-04T12:33:44.531Z,21.92
2023-05-04T12:36:31.318Z,21.86
2023-05-04T12:39:18.125Z,21.78
2023-05-04T12:42:05.032Z,21.68
2023-05-04T12:44:51.815Z,21.54
2023-05-04T12:47:38.619Z,21.38
2023-05-04T12:50:25.455Z,21.34
2023-05-04T12:53:12.518Z,21.32
2023-05-04T12:56:00.300Z,21.23
2023-05-04T12:58:47.081Z,21.21
2023-05-04T13:01:33.950Z,21.30
2023-05-04T13:04:20.816Z,21.42
2023-05-04T13:07:07.655Z,21.47
2023-05-04T13:09:54.480Z,21.43
2023-05-04T13:12:41.279Z,21.49
2023-05-04T13:15:28.092Z,21.47
2023-05-04T13:18:14.910Z,21.52
2023-05-04T13:21:01.713Z,21.46
2023-05-04T13:23:48.566Z,21.43
2023-05-04T13:26:35.431Z,21.41
2023-05-04T13:29:22.217Z,21.42
2023-05-04T13:32:09.041Z,21.37
2023-05-04T13:34:55.847Z,21.36
2023-05-04T13:37:42.666Z,21.44
2023-05-04T13:40:29.496Z,21.72
2023-05-04T13:43:16.412Z,21.92
2023-05-04T13:46:04.092Z,22.19
2023-05-04T13:48:51.036Z,22.48
2023-05-04T13:51:38.078Z,22.60
2023-05-04T13:54:24.961Z,22.87
2023-05-04T13:57:11.786Z,23.23
2023-05-04T14:00:06.993Z,23.39
2023-05-04T14:03:00.116Z,23.30
2023-05-04T14:05:47.164Z,23.18
2023-05-04T14:08:33.934Z,23.26
2023-05-04T14:11:20.713Z,23.21
2023-05-04T14:14:08.247Z,23.12
2023-05-04T14:16:55.234Z,23.27
2023-05-04T14:19:42.021Z,23.56
2023-05-04T14:22:28.812Z,23.85
2023-05-04T14:25:15.638Z,24.01
2023-05-04T14:28:02.461Z,24.08
2023-05-04T14:30:50.196Z,24.09
2023-05-04T14:33:39.929Z,24.33
2023-05-04T14:36:26.742Z,24.35
2023-05-04T14:39:13.577Z,24.19
2023-05-04T14:42:00.342Z,23.92
2023-05-04T14:44:47.186Z,23.56
2023-05-04T14:47:34.243Z,23.15
2023-05-04T14:50:21.381Z,22.85
2023-05-04T14:53:08.195Z,22.54
2023-05-04T14:55:55.018Z,22.33
2023-05-04T14:58:41.774Z,22.04
2023-05-04T15:01:28.624Z,21.76
2023-05-04T15:04:15.522Z,21.51
2023-05-04T15:07:02.894Z,21.26
2023-05-04T15:09:49.702Z,21.02
2023-05-04T15:12:36.568Z,20.84
2023-05-04T15:15:23.363Z,20.64
2023-05-04T15:18:10.274Z,20.48
2023-05-04T15:20:57.182Z,20.32
2023-05-04T15:23:44.013Z,20.29
2023-05-04T15:26:30.830Z,20.25
2023-05-04T15:29:17.673Z,20.22
2023-05-04T15:32:04.933Z,20.18
2023-05-04T15:35:04.691Z,20.22
2023-05-04T15:37:52.901Z,20.32
2023-05-04T15:40:39.796Z,20.40
2023-05-04T15:43:26.683Z,20.67
2023-05-04T15:46:13.631Z,21.12
2023-05-04T15:49:00.532Z,21.68
2023-05-04T15:51:47.343Z,22.00
2023-05-04T15:54:34.112Z,22.11
2023-05-04T15:57:20.904Z,22.20
2023-05-04T16:00:08.386Z,22.06
2023-05-04T16:02:55.628Z,21.98
2023-05-04T16:05:42.518Z,22.19
2023-05-04T16:08:29.321Z,22.49
2023-05-04T16:11:16.966Z,23.11
2023-05-04T16:14:03.752Z,23.61
2023-05-04T16:16:50.631Z,23.73
2023-05-04T16:19:37.511Z,23.59
2023-05-04T16:22:24.311Z,23.57
2023-05-04T16:25:11.522Z,23.32
2023-05-04T16:27:58.706Z,23.01
2023-05-04T16:30:45.712Z,22.84
2023-05-04T16:33:32.594Z,22.95
2023-05-04T16:36:19.392Z,23.07
2023-05-04T16:39:06.224Z,23.04
2023-05-04T16:41:53.072Z,22.74
2023-05-04T16:44:39.871Z,22.37
2023-05-04T16:47:26.670Z,21.98
2023-05-04T16:50:14.309Z,21.62
2023-05-04T16:53:01.382Z,21.27
2023-05-04T16:55:48.178Z,20.94
2023-05-04T16:58:35.014Z,20.60
2023-05-04T17:01:21.817Z,20.27
2023-05-04T17:04:09.081Z,20.02
2023-05-04T17:06:55.911Z,19.77
2023-05-04T17:09:42.718Z,19.63
2023-05-04T17:12:29.774Z,19.57
2023-05-04T17:15:16.606Z,19.42
2023-05-04T17:18:03.562Z,19.32
2023-05-04T17:20:50.382Z,19.21
2023-05-04T17:23:37.249Z,19.11
2023-05-04T17:26:24.120Z,19.05
2023-05-04T17:29:10.986Z,19.05
2023-05-04T17:31:57.810Z,19.06
2023-05-04T17:34:44.608Z,19.09
2023-05-04T17:37:31.467Z,19.10
2023-05-04T17:40:18.347Z,19.13
2023-05-04T17:43:05.221Z,19.19
2023-05-04T17:45:54.255Z,19.24
2023-05-04T17:48:42.471Z,19.27
2023-05-04T17:51:29.311Z,19.27
2023-05-04T17:54:16.821Z,19.22
2023-05-04T17:57:03.701Z,19.10
2023-05-04T17:59:50.609Z,18.99
2023-05-04T18:02:37.532Z,18.84
2023-05-04T18:05:24.458Z,18.72
2023-05-04T18:08:11.731Z,18.61
2023-05-04T18:10:58.542Z,18.51
2023-05-04T18:13:45.351Z,18.37
2023-05-04T18:16:36.162Z,18.25
2023-05-04T18:19:23.072Z,18.12
2023-05-04T18:22:09.917Z,18.12
2023-05-04T18:24:56.738Z,18.02
2023-05-04T18:27:43.872Z,17.94
2023-05-04T18:30:30.715Z,17.86
2023-05-04T18:33:17.553Z,17.79
2023-05-04T18:36:04.927Z,17.69
2023-05-04T18:38:51.713Z,17.61
2023-05-04T18:41:38.570Z,17.55
2023-05-04T18:44:35.532Z,17.45
2023-05-04T18:47:22.543Z,17.32
2023-05-04T18:50:09.993Z,17.23
2023-05-04T18:52:56.920Z,17.16
2023-05-04T18:55:43.751Z,17.09
2023-05-04T18:58:31.303Z,17.00
2023-05-04T19:01:18.638Z,16.93
2023-05-04T19:04:05.582Z,16.85
2023-05-04T19:06:52.400Z,16.76
2023-05-04T19:09:39.264Z,16.68
2023-05-04T19:12:26.177Z,16.62
2023-05-04T19:15:13.007Z,16.46
2023-05-04T19:18:00.448Z,16.50
2023-05-04T19:20:47.366Z,16.46
2023-05-04T19:23:34.202Z,16.42
2023-05-04T19:26:21.021Z,16.39
2023-05-04T19:29:07.848Z,16.34
2023-05-04T19:31:54.874Z,16.32
2023-05-04T19:34:42.993Z,16.29
2023-05-04T19:37:29.867Z,16.21
2023-05-04T19:40:16.662Z,16.14
2023-05-04T19:43:03.478Z,16.10
2023-05-04T19:45:50.314Z,16.05
2023-05-04T19:48:38.598Z,15.98
2023-05-04T19:51:25.442Z,15.92
2023-05-04T19:54:12.289Z,15.90
2023-05-04T19:56:59.318Z,15.88
2023-05-04T19:59:47.260Z,15.86
2023-05-04T20:02:34.302Z,15.81
2023-05-04T20:05:21.248Z,15.77
2023-05-04T20:08:08.163Z,15.79
2023-05-04T20:10:54.974Z,15.79
2023-05-04T20:13:41.793Z,15.80
2023-05-04T20:16:28.674Z,15.79
2023-05-04T20:19:16.056Z,15.78
2023-05-04T20:22:03.066Z,15.77
2023-05-04T20:24:49.957Z,15.81
2023-05-04T20:27:36.798Z,15.80
2023-05-04T20:30:23.636Z,15.77
2023-05-04T20:33:10.504Z,15.72
2023-05-04T20:35:57.329Z,15.61
2023-05-04T20:38:44.188Z,15.58
2023-05-04T20:41:30.966Z,15.50
2023-05-04T20:44:17.773Z,15.43
2023-05-04T20:47:04.589Z,15.30
2023-05-04T20:49:51.446Z,15.28
2023-05-04T20:52:38.357Z,15.23
2023-05-04T20:55:25.270Z,15.12
2023-05-04T20:58:12.137Z,15.04
2023-05-04T21:01:05.774Z,15.00
2023-05-04T21:03:53.023Z,14.92
2023-05-04T21:06:39.918Z,14.88
2023-05-04T21:09:26.740Z,14.80
2023-05-04T21:12:13.525Z,14.76
2023-05-04T21:15:00.321Z,14.70
2023-05-04T21:17:47.161Z,14.67
2023-05-04T21:20:34.031Z,14.61
2023-05-04T21:23:20.840Z,14.57
2023-05-04T21:26:07.676Z,14.53
2023-05-04T21:28:54.488Z,14.45
2023-05-04T21:31:41.561Z,14.43
2023-05-04T21:34:28.547Z,14.38
2023-05-04T21:37:15.301Z,14.34
2023-05-04T21:40:02.129Z,14.29
2023-05-04T21:42:48.937Z,14.27
2023-05-04T21:45:35.741Z,14.25
2023-05-04T21:48:22.561Z,14.25
2023-05-04T21:51:09.463Z,14.24
2023-05-04T21:53:56.236Z,14.21
2023-05-04T21:56:43.040Z,14.20
2023-05-04T21:59:29.874Z,14.18
2023-05-04T22:02:16.653Z,14.13
2023-05-04T22:05:03.491Z,14.12
2023-05-04T22:07:50.437Z,14.08
2023-05-04T22:10:37.454Z,14.04
2023-05-04T22:13:24.444Z,13.99
2023-05-04T22:16:11.274Z,13.97
2023-05-04T22:18:58.160Z,13.88
2023-05-04T22:21:44.978Z,13.85
2023-05-04T22:24:31.808Z,13.83
2023-05-04T22:27:18.639Z,13.79
2023-05-04T22:30:06.633Z,13.75
2023-05-04T22:32:53.867Z,13.73
2023-05-04T22:35:40.732Z,13.69
2023-05-04T22:38:27.517Z,13.65
2023-05-04T22:41:14.318Z,13.62
2023-05-04T22:44:01.099Z,13.62
2023-05-04T22:46:48.599Z,13.60
2023-05-04T22:49:35.382Z,13.57
2023-05-04T22:52:23.022Z,13.57
2023-05-04T22:55:09.994Z,13.52
2023-05-04T22:57:56.806Z,13.51
2023-05-04T23:00:43.617Z,13.49
2023-05-04T23:03:30.495Z,13.49
2023-05-04T23:06:17.321Z,13.48
2023-05-04T23:09:04.451Z,13.44
2023-05-04T23:11:54.406Z,13.42
2023-05-04T23:14:41.629Z,13.39
2023-05-04T23:17:28.482Z,13.39
2023-05-04T23:20:15.327Z,13.37
2023-05-04T23:23:02.125Z,13.34
2023-05-04T23:25:48.935Z,13.29
2023-05-04T23:28:35.920Z,13.26
2023-05-04T23:31:22.766Z,13.16
2023-05-04T23:34:09.586Z,13.19
2023-05-04T23:36:56.368Z,13.13
2023-05-04T23:39:45.720Z,13.06
2023-05-04T23:42:32.513Z,13.07
2023-05-04T23:45:19.468Z,13.02
2023-05-04T23:48:06.424Z,13.06
2023-05-04T23:50:54.227Z,13.08
2023-05-04T23:53:41.072Z,13.13
2023-05-04T23:56:27.923Z,13.17
2023-05-04T23:59:14.757Z,13.23
